Terminal Aerodrome Forecast
Issued by NWS

Home | Current Version | Previous Version | Text Only | Print | Product List | Glossary On
Versions: 1 2 3 4 5 6 7 8 9 10 11 12 13 14 15 16 17 18 19
000
FTUS46 KSTO 192320
TAFRBL
TAF
KRBL 192320Z 2000/2024 35004KT P6SM VCTS BKN100CB
      TEMPO 2000/2001 6SM -SHRA OVC050
     FM200200 33005KT P6SM FEW250=

USA.gov is the U.S. government's official web portal to all federal, state and local government web resources and services.